createdAt,value
2022-12-11T00:02:14.424Z,64.96
2022-12-11T00:07:17.521Z,64.71
2022-12-11T00:12:20.575Z,64.81
2022-12-11T00:17:24.062Z,64.51
2022-12-11T00:22:27.168Z,64.42
2022-12-11T00:27:36.598Z,64.63
2022-12-11T00:32:39.589Z,64.60
2022-12-11T00:37:42.635Z,63.59
2022-12-11T00:42:45.605Z,63.84
2022-12-11T00:47:49.682Z,63.90
2022-12-11T00:52:52.681Z,63.54
2022-12-11T00:57:56.932Z,63.76
2022-12-11T01:03:00.188Z,63.05
2022-12-11T01:08:04.286Z,63.58
2022-12-11T01:13:08.039Z,63.12
2022-12-11T01:18:13.583Z,63.47
2022-12-11T01:23:16.649Z,62.85
2022-12-11T01:28:19.683Z,62.87
2022-12-11T01:33:22.721Z,62.74
2022-12-11T01:38:25.724Z,62.41
2022-12-11T01:43:28.739Z,61.93
2022-12-11T01:48:36.686Z,62.45
2022-12-11T01:53:46.518Z,62.05
2022-12-11T01:58:56.742Z,61.93
2022-12-11T02:04:00.751Z,62.46
2022-12-11T02:09:10.757Z,61.61
2022-12-11T02:14:24.870Z,61.60
2022-12-11T02:19:30.432Z,61.80
2022-12-11T02:24:57.840Z,61.57
2022-12-11T02:30:00.817Z,61.30
2022-12-11T02:35:12.697Z,61.17
2022-12-11T02:40:21.790Z,60.88
2022-12-11T02:45:26.658Z,61.00
2022-12-11T02:50:30.678Z,60.90
2022-12-11T02:55:36.768Z,60.82
2022-12-11T03:00:39.828Z,60.59
2022-12-11T03:05:43.295Z,60.52
2022-12-11T03:10:46.904Z,60.72
2022-12-11T03:16:19.208Z,60.77
2022-12-11T03:21:33.481Z,60.71
2022-12-11T03:26:43.210Z,60.96
2022-12-11T03:31:54.826Z,61.00
2022-12-11T03:37:00.474Z,62.01
2022-12-11T03:42:08.244Z,62.54
2022-12-11T03:47:13.564Z,62.09
2022-12-11T03:52:17.639Z,62.52
2022-12-11T03:57:26.552Z,63.05
2022-12-11T04:02:29.544Z,63.36
2022-12-11T04:07:32.609Z,62.73
2022-12-11T04:12:35.610Z,63.56
2022-12-11T04:17:57.141Z,63.37
2022-12-11T04:23:18.703Z,63.14
2022-12-11T04:28:21.745Z,63.52
2022-12-11T04:33:24.783Z,64.29
2022-12-11T04:38:28.211Z,63.53
2022-12-11T04:43:31.245Z,63.75
2022-12-11T04:48:35.309Z,63.81
2022-12-11T04:53:38.879Z,64.04
2022-12-11T04:58:43.313Z,64.08
2022-12-11T05:03:47.051Z,64.12
2022-12-11T05:08:50.108Z,64.64
2022-12-11T05:13:53.158Z,64.73
2022-12-11T05:18:56.231Z,64.70
2022-12-11T05:23:59.242Z,65.42
2022-12-11T05:29:08.535Z,65.25
2022-12-11T05:34:11.512Z,65.37
2022-12-11T05:39:14.643Z,65.20
2022-12-11T05:44:17.642Z,65.06
2022-12-11T05:49:25.915Z,65.35
2022-12-11T05:54:32.072Z,65.81
2022-12-11T05:59:35.317Z,65.50
2022-12-11T06:04:38.285Z,66.00
2022-12-11T06:09:41.251Z,65.97
2022-12-11T06:14:44.337Z,66.30
2022-12-11T06:19:47.285Z,65.25
2022-12-11T06:24:50.338Z,66.31
2022-12-11T06:29:53.398Z,66.54
2022-12-11T06:34:56.425Z,67.13
2022-12-11T06:39:59.456Z,66.57
2022-12-11T06:45:06.391Z,66.90
2022-12-11T06:50:09.883Z,66.63
2022-12-11T06:55:13.215Z,66.65
2022-12-11T07:00:16.922Z,67.41
2022-12-11T07:05:20.070Z,66.71
2022-12-11T07:10:23.913Z,65.95
2022-12-11T07:15:26.869Z,65.83
2022-12-11T07:20:30.085Z,66.48
2022-12-11T07:25:33.102Z,67.26
2022-12-11T07:30:39.198Z,67.24
2022-12-11T07:35:42.180Z,67.01
2022-12-11T07:40:45.148Z,67.19
2022-12-11T07:45:48.241Z,66.06
2022-12-11T07:50:51.232Z,66.77
2022-12-11T07:55:54.278Z,66.26
2022-12-11T08:00:58.437Z,65.97
2022-12-11T08:06:01.554Z,66.92
2022-12-11T08:11:05.790Z,67.23
2022-12-11T08:16:13.257Z,66.83
2022-12-11T08:21:19.236Z,66.94
2022-12-11T08:26:28.012Z,66.99
2022-12-11T08:31:31.664Z,66.89
2022-12-11T08:36:34.760Z,66.53
2022-12-11T08:41:37.891Z,66.86
2022-12-11T08:46:41.034Z,66.47
2022-12-11T08:51:44.034Z,66.81
2022-12-11T08:56:47.058Z,66.77
2022-12-11T09:01:50.128Z,65.80
2022-12-11T09:06:53.158Z,66.77
2022-12-11T09:11:56.885Z,66.85
2022-12-11T09:16:59.938Z,66.86
2022-12-11T09:22:02.990Z,66.21
2022-12-11T09:27:06.501Z,65.52
2022-12-11T09:32:09.479Z,65.85
2022-12-11T09:37:12.528Z,65.65
2022-12-11T09:42:21.579Z,65.86
2022-12-11T09:47:32.542Z,65.19
2022-12-11T09:52:52.261Z,64.92
2022-12-11T09:58:10.727Z,65.18
2022-12-11T10:03:19.471Z,64.76
2022-12-11T10:08:26.012Z,64.07
2022-12-11T10:13:33.695Z,64.42
2022-12-11T10:18:37.547Z,63.23
2022-12-11T10:24:03.077Z,63.99
2022-12-11T10:29:14.453Z,63.69
2022-12-11T10:34:33.428Z,64.21
2022-12-11T10:39:36.408Z,64.27
2022-12-11T10:44:39.383Z,63.56
2022-12-11T10:49:55.737Z,64.30
2022-12-11T10:55:10.555Z,64.43
2022-12-11T11:00:32.702Z,62.83
2022-12-11T11:05:38.032Z,62.57
2022-12-11T11:10:55.895Z,63.28
2022-12-11T11:16:07.804Z,64.31
2022-12-11T11:21:19.401Z,64.88
2022-12-11T11:26:23.434Z,64.27
2022-12-11T11:31:35.742Z,63.57
2022-12-11T11:36:38.927Z,63.55
2022-12-11T11:42:05.131Z,64.36
2022-12-11T11:47:17.351Z,64.02
2022-12-11T11:52:36.746Z,64.46
2022-12-11T11:57:46.220Z,63.96
2022-12-11T12:02:54.913Z,64.65
2022-12-11T12:08:14.656Z,65.18
2022-12-11T12:13:51.492Z,65.03
2022-12-11T12:19:13.159Z,65.11
2022-12-11T12:24:36.285Z,65.25
2022-12-11T12:30:02.230Z,64.80
2022-12-11T12:35:24.725Z,65.09
2022-12-11T12:41:06.044Z,65.55
2022-12-11T12:46:11.720Z,65.41
2022-12-11T12:51:16.748Z,64.99
2022-12-11T12:56:21.150Z,65.29
2022-12-11T13:01:29.101Z,65.84
2022-12-11T13:06:39.312Z,65.68
2022-12-11T13:11:42.493Z,66.09
2022-12-11T13:16:48.238Z,66.13
2022-12-11T13:22:18.150Z,66.47
2022-12-11T13:27:38.105Z,66.79
2022-12-11T13:32:57.737Z,67.30
2022-12-11T13:38:15.865Z,67.88
2022-12-11T13:43:24.094Z,68.39
2022-12-11T13:48:48.079Z,68.47
2022-12-11T13:54:03.918Z,69.30
2022-12-11T13:59:21.056Z,70.27
2022-12-11T14:04:25.736Z,70.08
2022-12-11T14:09:29.413Z,70.46
2022-12-11T14:14:44.062Z,71.65
2022-12-11T14:19:49.162Z,71.02
2022-12-11T14:24:54.419Z,72.11
2022-12-11T14:29:57.627Z,71.79
2022-12-11T14:35:04.138Z,71.76
2022-12-11T14:40:16.328Z,71.83
2022-12-11T14:45:21.562Z,71.82
2022-12-11T14:50:34.974Z,72.78
2022-12-11T14:55:39.858Z,72.07
2022-12-11T15:00:43.061Z,72.13
2022-12-11T15:05:57.689Z,72.50
2022-12-11T15:11:08.931Z,72.38
2022-12-11T15:16:15.589Z,72.38
2022-12-11T15:21:28.520Z,73.26
2022-12-11T15:26:44.737Z,72.82
2022-12-11T15:31:48.023Z,72.74
2022-12-11T15:36:51.188Z,72.06
2022-12-11T15:41:54.441Z,71.19
2022-12-11T15:47:00.435Z,71.04
2022-12-11T15:52:03.659Z,70.19
2022-12-11T15:57:13.389Z,68.82
2022-12-11T16:02:16.903Z,67.90
2022-12-11T16:07:25.479Z,67.55
2022-12-11T16:12:28.508Z,66.58
2022-12-11T16:17:34.215Z,65.85
2022-12-11T16:22:37.416Z,65.18
2022-12-11T16:27:40.764Z,64.47
2022-12-11T16:32:44.505Z,62.49
2022-12-11T16:37:54.058Z,62.35
2022-12-11T16:42:58.002Z,60.83
2022-12-11T16:48:04.821Z,60.06
2022-12-11T16:53:10.827Z,60.17
2022-12-11T16:58:20.290Z,60.01
2022-12-11T17:03:23.310Z,59.77
2022-12-11T17:08:26.677Z,58.00
2022-12-11T17:13:34.398Z,57.54
2022-12-11T17:18:39.202Z,56.73
2022-12-11T17:23:42.607Z,56.35
2022-12-11T17:28:45.859Z,56.41
2022-12-11T17:33:52.175Z,56.10
2022-12-11T17:38:55.407Z,55.88
2022-12-11T17:43:58.400Z,55.15
2022-12-11T17:49:04.419Z,55.34
2022-12-11T17:54:07.468Z,55.21
2022-12-11T17:59:10.515Z,55.00
2022-12-11T18:04:13.931Z,54.23
2022-12-11T18:09:17.074Z,53.11
2022-12-11T18:14:20.111Z,52.79
2022-12-11T18:19:23.234Z,51.34
2022-12-11T18:24:31.962Z,50.57
2022-12-11T18:29:35.136Z,50.48
2022-12-11T18:34:38.185Z,50.45
2022-12-11T18:39:41.467Z,50.33
2022-12-11T18:44:45.755Z,49.97
2022-12-11T18:49:48.800Z,50.19
2022-12-11T18:54:54.693Z,50.41
2022-12-11T19:00:02.644Z,50.45
2022-12-11T19:05:06.398Z,50.64
2022-12-11T19:10:10.051Z,51.37
2022-12-11T19:15:13.288Z,50.95
2022-12-11T19:20:47.457Z,51.74
2022-12-11T19:25:45.095Z,51.50
2022-12-11T19:30:49.449Z,52.18
2022-12-11T19:36:01.948Z,52.24
2022-12-11T19:41:10.828Z,52.69
2022-12-11T19:46:14.852Z,52.44
2022-12-11T19:51:24.387Z,53.04
2022-12-11T19:56:27.510Z,53.38
2022-12-11T20:01:32.307Z,52.90
2022-12-11T20:06:37.703Z,55.23
2022-12-11T20:11:43.234Z,54.76
2022-12-11T20:17:09.777Z,55.84
2022-12-11T20:22:10.047Z,56.55
2022-12-11T20:27:13.467Z,56.71
2022-12-11T20:32:16.520Z,56.64
2022-12-11T20:37:19.965Z,56.40
2022-12-11T20:42:24.313Z,56.91
2022-12-11T20:47:27.321Z,55.41
2022-12-11T20:52:30.376Z,54.64
2022-12-11T20:57:33.589Z,55.13
2022-12-11T21:02:36.629Z,54.44
2022-12-11T21:07:39.640Z,53.63
2022-12-11T21:12:42.664Z,53.26
2022-12-11T21:17:45.683Z,53.15
2022-12-11T21:22:48.808Z,53.46
2022-12-11T21:27:52.184Z,53.30
2022-12-11T21:32:55.190Z,53.25
2022-12-11T21:37:58.319Z,52.96
2022-12-11T21:43:01.359Z,53.26
2022-12-11T21:48:04.740Z,53.05
2022-12-11T21:53:07.892Z,53.40
2022-12-11T21:58:11.046Z,53.95
2022-12-11T22:03:14.094Z,53.94
2022-12-11T22:08:17.148Z,53.77
2022-12-11T22:13:20.337Z,54.00
2022-12-11T22:18:27.310Z,53.73
2022-12-11T22:23:30.358Z,54.01
2022-12-11T22:28:33.496Z,54.40
2022-12-11T22:33:36.494Z,54.12
2022-12-11T22:38:40.129Z,53.95
2022-12-11T22:49:11.893Z,54.96
2022-12-11T22:54:16.714Z,55.07
2022-12-11T22:59:19.747Z,54.83
2022-12-11T23:04:22.856Z,55.02
2022-12-11T23:09:26.307Z,54.92
2022-12-11T23:14:29.419Z,55.21
2022-12-11T23:19:32.489Z,55.29
2022-12-11T23:24:35.525Z,54.83
2022-12-11T23:29:38.612Z,54.82
2022-12-11T23:34:41.699Z,55.40
2022-12-11T23:39:44.730Z,54.94
2022-12-11T23:44:47.797Z,55.62
2022-12-11T23:49:50.901Z,55.78
2022-12-11T23:54:55.732Z,56.36
2022-12-11T23:59:59.323Z,56.93
